sensor_id;sensor_type;location;lat;lon;timestamp;temperature;humidity
81902;DHT22;71369;50.796;3.290;2023-10-09T06:11:49;13.90;92.10
81902;DHT22;71369;50.796;3.290;2023-10-09T06:14:40;14.00;92.60
81902;DHT22;71369;50.796;3.290;2023-10-09T06:17:06;14.00;92.80
81902;DHT22;71369;50.796;3.290;2023-10-09T06:19:49;14.10;92.90
81902;DHT22;71369;50.796;3.290;2023-10-09T06:22:16;14.10;93.00
81902;DHT22;71369;50.796;3.290;2023-10-09T06:25:00;14.20;92.90
81902;DHT22;71369;50.796;3.290;2023-10-09T06:27:34;14.30;92.80
81902;DHT22;71369;50.796;3.290;2023-10-09T06:30:01;14.30;92.70
81902;DHT22;71369;50.796;3.290;2023-10-09T06:32:46;14.50;92.60
81902;DHT22;71369;50.796;3.290;2023-10-09T06:35:24;14.60;92.50
81902;DHT22;71369;50.796;3.290;2023-10-09T06:37:59;14.60;92.30
81902;DHT22;71369;50.796;3.290;2023-10-09T06:40:35;14.60;92.20
81902;DHT22;71369;50.796;3.290;2023-10-09T06:43:20;14.70;92.10
81902;DHT22;71369;50.796;3.290;2023-10-09T06:45:49;14.70;92.00
81902;DHT22;71369;50.796;3.290;2023-10-09T06:48:27;14.80;92.00
81902;DHT22;71369;50.796;3.290;2023-10-09T06:51:06;14.80;92.00
81902;DHT22;71369;50.796;3.290;2023-10-09T06:53:53;15.00;92.10
81902;DHT22;71369;50.796;3.290;2023-10-09T06:58:54;15.10;91.70
81902;DHT22;71369;50.796;3.290;2023-10-09T07:01:21;15.20;91.70
81902;DHT22;71369;50.796;3.290;2023-10-09T07:04:08;15.40;91.60
81902;DHT22;71369;50.796;3.290;2023-10-09T07:07:07;15.50;91.20
81902;DHT22;71369;50.796;3.290;2023-10-09T07:09:39;15.80;91.20
81902;DHT22;71369;50.796;3.290;2023-10-09T07:12:11;16.10;90.50
81902;DHT22;71369;50.796;3.290;2023-10-09T07:14:46;16.50;90.00
81902;DHT22;71369;50.796;3.290;2023-10-09T07:17:12;16.90;87.30
81902;DHT22;71369;50.796;3.290;2023-10-09T07:19:56;17.30;86.80
81902;DHT22;71369;50.796;3.290;2023-10-09T07:22:41;17.70;84.50
81902;DHT22;71369;50.796;3.290;2023-10-09T07:25:21;18.10;81.90
81902;DHT22;71369;50.796;3.290;2023-10-09T07:28:09;18.40;79.90
81902;DHT22;71369;50.796;3.290;2023-10-09T07:30:55;18.60;78.80
81902;DHT22;71369;50.796;3.290;2023-10-09T07:33:23;19.00;78.00
81902;DHT22;71369;50.796;3.290;2023-10-09T07:36:09;19.10;76.80
81902;DHT22;71369;50.796;3.290;2023-10-09T07:38:44;19.20;76.90
81902;DHT22;71369;50.796;3.290;2023-10-09T07:41:10;19.20;76.20
81902;DHT22;71369;50.796;3.290;2023-10-09T07:43:37;19.10;76.30
81902;DHT22;71369;50.796;3.290;2023-10-09T07:46:17;19.10;77.00
81902;DHT22;71369;50.796;3.290;2023-10-09T07:49:03;19.00;77.40
81902;DHT22;71369;50.796;3.290;2023-10-09T07:51:40;18.90;77.20
81902;DHT22;71369;50.796;3.290;2023-10-09T07:54:09;18.90;77.50
81902;DHT22;71369;50.796;3.290;2023-10-09T07:56:41;18.80;78.10
81902;DHT22;71369;50.796;3.290;2023-10-09T07:59:10;18.70;77.70
81902;DHT22;71369;50.796;3.290;2023-10-09T08:01:42;18.70;77.90
81902;DHT22;71369;50.796;3.290;2023-10-09T08:04:26;18.70;77.70
81902;DHT22;71369;50.796;3.290;2023-10-09T08:07:06;18.80;77.40
81902;DHT22;71369;50.796;3.290;2023-10-09T08:09:36;18.90;77.20
81902;DHT22;71369;50.796;3.290;2023-10-09T08:12:34;18.80;77.30
81902;DHT22;71369;50.796;3.290;2023-10-09T08:15:16;18.90;77.40
81902;DHT22;71369;50.796;3.290;2023-10-09T08:17:52;18.90;76.80
81902;DHT22;71369;50.796;3.290;2023-10-09T08:20:29;19.00;76.30
81902;DHT22;71369;50.796;3.290;2023-10-09T08:23:15;19.00;76.30
81902;DHT22;71369;50.796;3.290;2023-10-09T08:26:04;19.20;76.40
81902;DHT22;71369;50.796;3.290;2023-10-09T08:28:43;19.20;75.50
81902;DHT22;71369;50.796;3.290;2023-10-09T08:31:13;19.60;75.00
81902;DHT22;71369;50.796;3.290;2023-10-09T08:34:03;20.20;72.00
81902;DHT22;71369;50.796;3.290;2023-10-09T08:36:30;20.70;69.00
81902;DHT22;71369;50.796;3.290;2023-10-09T08:39:03;21.00;67.60
81902;DHT22;71369;50.796;3.290;2023-10-09T08:41:48;21.10;67.00
81902;DHT22;71369;50.796;3.290;2023-10-09T08:44:19;21.10;67.60
81902;DHT22;71369;50.796;3.290;2023-10-09T08:46:50;21.10;67.40
81902;DHT22;71369;50.796;3.290;2023-10-09T08:49:17;21.50;67.50
81902;DHT22;71369;50.796;3.290;2023-10-09T08:52:08;22.10;65.80
81902;DHT22;71369;50.796;3.290;2023-10-09T08:54:36;22.40;63.30
81902;DHT22;71369;50.796;3.290;2023-10-09T08:57:04;22.00;63.10
81902;DHT22;71369;50.796;3.290;2023-10-09T08:59:44;21.80;63.80
81902;DHT22;71369;50.796;3.290;2023-10-09T09:02:14;21.70;65.50
81902;DHT22;71369;50.796;3.290;2023-10-09T09:04:41;21.60;65.80
81902;DHT22;71369;50.796;3.290;2023-10-09T09:07:25;21.60;66.30
81902;DHT22;71369;50.796;3.290;2023-10-09T09:09:58;21.50;65.80
81902;DHT22;71369;50.796;3.290;2023-10-09T09:12:43;21.50;66.80
81902;DHT22;71369;50.796;3.290;2023-10-09T09:15:19;21.60;66.50
81902;DHT22;71369;50.796;3.290;2023-10-09T09:17:47;21.60;66.30
81902;DHT22;71369;50.796;3.290;2023-10-09T09:20:25;21.50;67.50
81902;DHT22;71369;50.796;3.290;2023-10-09T09:23:00;21.50;66.80
81902;DHT22;71369;50.796;3.290;2023-10-09T09:25:46;21.60;66.80
81902;DHT22;71369;50.796;3.290;2023-10-09T09:28:24;22.00;65.20
81902;DHT22;71369;50.796;3.290;2023-10-09T09:30:52;22.30;64.90
81902;DHT22;71369;50.796;3.290;2023-10-09T09:33:25;22.50;64.40
81902;DHT22;71369;50.796;3.290;2023-10-09T09:36:07;23.20;63.10
81902;DHT22;71369;50.796;3.290;2023-10-09T09:38:34;24.20;60.50
81902;DHT22;71369;50.796;3.290;2023-10-09T09:41:27;24.90;57.90
81902;DHT22;71369;50.796;3.290;2023-10-09T09:43:56;25.40;55.00
81902;DHT22;71369;50.796;3.290;2023-10-09T09:46:34;26.60;51.90
81902;DHT22;71369;50.796;3.290;2023-10-09T09:49:02;27.50;49.40
81902;DHT22;71369;50.796;3.290;2023-10-09T09:51:35;27.80;48.20
81902;DHT22;71369;50.796;3.290;2023-10-09T09:54:01;28.10;46.90
81902;DHT22;71369;50.796;3.290;2023-10-09T09:56:29;28.60;45.40
81902;DHT22;71369;50.796;3.290;2023-10-09T09:58:59;28.80;43.90
81902;DHT22;71369;50.796;3.290;2023-10-09T10:01:30;29.20;44.00
81902;DHT22;71369;50.796;3.290;2023-10-09T10:04:11;30.30;43.10
81902;DHT22;71369;50.796;3.290;2023-10-09T10:06:40;31.00;41.70
81902;DHT22;71369;50.796;3.290;2023-10-09T10:09:39;31.90;39.30
81902;DHT22;71369;50.796;3.290;2023-10-09T10:12:09;32.00;37.00
81902;DHT22;71369;50.796;3.290;2023-10-09T10:14:53;32.00;37.00
81902;DHT22;71369;50.796;3.290;2023-10-09T10:17:22;32.20;38.00
81902;DHT22;71369;50.796;3.290;2023-10-09T10:20:05;32.30;37.00
81902;DHT22;71369;50.796;3.290;2023-10-09T10:22:43;32.60;36.70
81902;DHT22;71369;50.796;3.290;2023-10-09T10:25:33;32.40;36.30
81902;DHT22;71369;50.796;3.290;2023-10-09T10:28:22;32.50;36.80
81902;DHT22;71369;50.796;3.290;2023-10-09T10:31:09;33.50;35.50
81902;DHT22;71369;50.796;3.290;2023-10-09T10:36:22;33.90;34.50
81902;DHT22;71369;50.796;3.290;2023-10-09T10:39:09;33.90;33.00
81902;DHT22;71369;50.796;3.290;2023-10-09T10:41:56;33.60;33.70
81902;DHT22;71369;50.796;3.290;2023-10-09T10:44:29;33.00;33.60
81902;DHT22;71369;50.796;3.290;2023-10-09T10:47:09;30.80;37.70
81902;DHT22;71369;50.796;3.290;2023-10-09T10:49:52;29.50;40.00
81902;DHT22;71369;50.796;3.290;2023-10-09T10:52:27;29.20;40.00
81902;DHT22;71369;50.796;3.290;2023-10-09T10:55:12;29.30;40.60
81902;DHT22;71369;50.796;3.290;2023-10-09T10:57:58;29.10;41.80
81902;DHT22;71369;50.796;3.290;2023-10-09T11:00:31;28.40;41.90
81902;DHT22;71369;50.796;3.290;2023-10-09T11:03:21;28.30;42.90
81902;DHT22;71369;50.796;3.290;2023-10-09T11:06:27;28.10;45.10
81902;DHT22;71369;50.796;3.290;2023-10-09T11:09:07;28.40;43.40
81902;DHT22;71369;50.796;3.290;2023-10-09T11:11:50;28.30;42.00
81902;DHT22;71369;50.796;3.290;2023-10-09T11:14:22;27.30;45.60
81902;DHT22;71369;50.796;3.290;2023-10-09T11:16:51;26.60;47.00
81902;DHT22;71369;50.796;3.290;2023-10-09T11:19:23;26.50;49.10
81902;DHT22;71369;50.796;3.290;2023-10-09T11:21:59;26.70;48.10
81902;DHT22;71369;50.796;3.290;2023-10-09T11:24:37;26.40;48.10
81902;DHT22;71369;50.796;3.290;2023-10-09T11:27:06;26.30;48.80
81902;DHT22;71369;50.796;3.290;2023-10-09T11:29:34;25.80;50.40
81902;DHT22;71369;50.796;3.290;2023-10-09T11:32:15;25.30;51.00
81902;DHT22;71369;50.796;3.290;2023-10-09T11:34:45;24.90;51.30
81902;DHT22;71369;50.796;3.290;2023-10-09T11:37:21;25.10;51.50
81902;DHT22;71369;50.796;3.290;2023-10-09T11:39:59;25.30;51.60
81902;DHT22;71369;50.796;3.290;2023-10-09T11:42:29;25.30;50.90
81902;DHT22;71369;50.796;3.290;2023-10-09T11:45:24;25.10;51.60
81902;DHT22;71369;50.796;3.290;2023-10-09T11:47:55;25.20;50.90
81902;DHT22;71369;50.796;3.290;2023-10-09T11:50:45;25.50;51.80
81902;DHT22;71369;50.796;3.290;2023-10-09T11:53:44;25.60;52.30
81902;DHT22;71369;50.796;3.290;2023-10-09T11:56:30;25.90;51.20
81902;DHT22;71369;50.796;3.290;2023-10-09T11:59:01;26.10;49.70
81902;DHT22;71369;50.796;3.290;2023-10-09T12:01:48;26.00;49.20
81902;DHT22;71369;50.796;3.290;2023-10-09T12:04:18;26.30;49.20
81902;DHT22;71369;50.796;3.290;2023-10-09T12:06:44;26.30;48.50
81902;DHT22;71369;50.796;3.290;2023-10-09T12:09:11;26.00;49.60
81902;DHT22;71369;50.796;3.290;2023-10-09T12:11:49;26.00;48.50
81902;DHT22;71369;50.796;3.290;2023-10-09T12:14:19;26.20;49.10
81902;DHT22;71369;50.796;3.290;2023-10-09T12:16:49;26.60;49.50
81902;DHT22;71369;50.796;3.290;2023-10-09T12:19:23;26.50;48.90
81902;DHT22;71369;50.796;3.290;2023-10-09T12:21:49;26.60;48.20
81902;DHT22;71369;50.796;3.290;2023-10-09T12:24:15;26.70;48.70
81902;DHT22;71369;50.796;3.290;2023-10-09T12:27:06;26.70;48.20
81902;DHT22;71369;50.796;3.290;2023-10-09T12:29:36;26.70;49.20
81902;DHT22;71369;50.796;3.290;2023-10-09T12:32:06;26.60;47.80
81902;DHT22;71369;50.796;3.290;2023-10-09T12:34:39;26.70;49.00
81902;DHT22;71369;50.796;3.290;2023-10-09T12:37:05;26.20;49.70
81902;DHT22;71369;50.796;3.290;2023-10-09T12:39:34;26.00;49.60
81902;DHT22;71369;50.796;3.290;2023-10-09T12:42:06;26.40;50.30
81902;DHT22;71369;50.796;3.290;2023-10-09T12:44:35;26.40;48.70
81902;DHT22;71369;50.796;3.290;2023-10-09T12:47:13;26.50;48.20
81902;DHT22;71369;50.796;3.290;2023-10-09T12:49:39;26.40;48.50
81902;DHT22;71369;50.796;3.290;2023-10-09T12:52:08;26.60;49.90
81902;DHT22;71369;50.796;3.290;2023-10-09T12:54:48;26.80;49.60
81902;DHT22;71369;50.796;3.290;2023-10-09T12:57:14;27.20;49.50
81902;DHT22;71369;50.796;3.290;2023-10-09T12:59:41;27.10;48.10
81902;DHT22;71369;50.796;3.290;2023-10-09T13:02:23;27.00;49.90
81902;DHT22;71369;50.796;3.290;2023-10-09T13:05:01;27.20;50.00
81902;DHT22;71369;50.796;3.290;2023-10-09T13:07:31;26.90;48.70
81902;DHT22;71369;50.796;3.290;2023-10-09T13:09:58;27.00;47.10
81902;DHT22;71369;50.796;3.290;2023-10-09T13:12:55;26.80;46.90
81902;DHT22;71369;50.796;3.290;2023-10-09T13:15:21;26.90;47.60
81902;DHT22;71369;50.796;3.290;2023-10-09T13:17:47;27.00;47.10
81902;DHT22;71369;50.796;3.290;2023-10-09T13:20:13;26.70;48.20
81902;DHT22;71369;50.796;3.290;2023-10-09T13:22:40;26.50;49.40
81902;DHT22;71369;50.796;3.290;2023-10-09T13:25:09;26.30;48.40
81902;DHT22;71369;50.796;3.290;2023-10-09T13:27:50;26.20;48.20
81902;DHT22;71369;50.796;3.290;2023-10-09T13:30:18;26.20;49.10
81902;DHT22;71369;50.796;3.290;2023-10-09T13:32:48;26.10;49.20
81902;DHT22;71369;50.796;3.290;2023-10-09T13:35:19;26.30;49.40
81902;DHT22;71369;50.796;3.290;2023-10-09T13:37:45;26.50;49.60
81902;DHT22;71369;50.796;3.290;2023-10-09T13:40:22;26.50;49.00
81902;DHT22;71369;50.796;3.290;2023-10-09T13:42:56;26.30;49.80
81902;DHT22;71369;50.796;3.290;2023-10-09T13:45:25;26.50;49.70
81902;DHT22;71369;50.796;3.290;2023-10-09T13:47:54;26.50;50.30
81902;DHT22;71369;50.796;3.290;2023-10-09T13:50:22;26.30;50.00
81902;DHT22;71369;50.796;3.290;2023-10-09T13:52:48;26.40;49.80
81902;DHT22;71369;50.796;3.290;2023-10-09T13:55:15;26.20;50.30
81902;DHT22;71369;50.796;3.290;2023-10-09T13:57:41;25.90;51.10
81902;DHT22;71369;50.796;3.290;2023-10-09T14:00:15;25.60;52.30
81902;DHT22;71369;50.796;3.290;2023-10-09T14:03:00;25.50;52.40
81902;DHT22;71369;50.796;3.290;2023-10-09T14:05:29;25.70;52.20
81902;DHT22;71369;50.796;3.290;2023-10-09T14:07:55;25.80;51.80
81902;DHT22;71369;50.796;3.290;2023-10-09T14:10:26;26.00;51.90
81902;DHT22;71369;50.796;3.290;2023-10-09T14:12:56;26.20;51.40
81902;DHT22;71369;50.796;3.290;2023-10-09T14:15:23;26.10;50.20
81902;DHT22;71369;50.796;3.290;2023-10-09T14:17:49;26.00;51.50
81902;DHT22;71369;50.796;3.290;2023-10-09T14:20:22;26.10;51.10
81902;DHT22;71369;50.796;3.290;2023-10-09T14:23:00;26.50;50.50
81902;DHT22;71369;50.796;3.290;2023-10-09T14:25:33;26.50;49.70
81902;DHT22;71369;50.796;3.290;2023-10-09T14:28:09;26.30;49.70
81902;DHT22;71369;50.796;3.290;2023-10-09T14:30:38;26.00;50.70
81902;DHT22;71369;50.796;3.290;2023-10-09T14:33:11;25.90;50.20
81902;DHT22;71369;50.796;3.290;2023-10-09T14:35:54;25.70;50.20
81902;DHT22;71369;50.796;3.290;2023-10-09T14:38:42;25.50;51.10
81902;DHT22;71369;50.796;3.290;2023-10-09T14:41:08;25.50;52.90
81902;DHT22;71369;50.796;3.290;2023-10-09T14:43:37;25.60;52.10
81902;DHT22;71369;50.796;3.290;2023-10-09T14:46:02;25.50;52.50
81902;DHT22;71369;50.796;3.290;2023-10-09T14:48:33;25.50;51.60
81902;DHT22;71369;50.796;3.290;2023-10-09T14:51:02;25.60;51.80
81902;DHT22;71369;50.796;3.290;2023-10-09T14:53:33;25.60;51.20
81902;DHT22;71369;50.796;3.290;2023-10-09T14:56:03;24.90;52.60
81902;DHT22;71369;50.796;3.290;2023-10-09T14:58:30;24.80;54.30
81902;DHT22;71369;50.796;3.290;2023-10-09T15:01:08;24.70;54.80
81902;DHT22;71369;50.796;3.290;2023-10-09T15:03:51;24.40;55.70
81902;DHT22;71369;50.796;3.290;2023-10-09T15:06:21;24.40;56.80
81902;DHT22;71369;50.796;3.290;2023-10-09T15:08:50;24.20;56.70
81902;DHT22;71369;50.796;3.290;2023-10-09T15:11:16;24.40;56.60
81902;DHT22;71369;50.796;3.290;2023-10-09T15:13:45;24.30;57.00
81902;DHT22;71369;50.796;3.290;2023-10-09T15:16:12;24.30;55.50
81902;DHT22;71369;50.796;3.290;2023-10-09T15:18:41;24.50;54.90
81902;DHT22;71369;50.796;3.290;2023-10-09T15:21:09;24.40;55.40
81902;DHT22;71369;50.796;3.290;2023-10-09T15:23:35;24.40;56.20
81902;DHT22;71369;50.796;3.290;2023-10-09T15:26:02;24.30;56.00
81902;DHT22;71369;50.796;3.290;2023-10-09T15:28:35;24.40;56.20
81902;DHT22;71369;50.796;3.290;2023-10-09T15:31:07;24.30;55.70
81902;DHT22;71369;50.796;3.290;2023-10-09T15:33:42;24.40;56.50
81902;DHT22;71369;50.796;3.290;2023-10-09T15:38:38;24.30;55.70
81902;DHT22;71369;50.796;3.290;2023-10-09T15:41:04;24.00;57.00
81902;DHT22;71369;50.796;3.290;2023-10-09T15:43:41;23.90;57.90
81902;DHT22;71369;50.796;3.290;2023-10-09T15:46:13;23.90;57.60
81902;DHT22;71369;50.796;3.290;2023-10-09T15:48:44;24.00;57.50
81902;DHT22;71369;50.796;3.290;2023-10-09T15:51:12;23.80;58.30
81902;DHT22;71369;50.796;3.290;2023-10-09T15:53:46;23.80;58.80
81902;DHT22;71369;50.796;3.290;2023-10-09T15:56:13;23.90;57.60
81902;DHT22;71369;50.796;3.290;2023-10-09T15:58:40;24.00;56.60
81902;DHT22;71369;50.796;3.290;2023-10-09T16:01:16;24.00;56.50
81902;DHT22;71369;50.796;3.290;2023-10-09T16:03:46;23.90;58.20
81902;DHT22;71369;50.796;3.290;2023-10-09T16:06:19;24.00;57.20
81902;DHT22;71369;50.796;3.290;2023-10-09T16:08:47;24.10;56.50
81902;DHT22;71369;50.796;3.290;2023-10-09T16:11:21;24.00;57.40
81902;DHT22;71369;50.796;3.290;2023-10-09T16:13:51;23.90;56.80
81902;DHT22;71369;50.796;3.290;2023-10-09T16:16:27;23.70;58.40
81902;DHT22;71369;50.796;3.290;2023-10-09T16:18:54;23.50;58.60
81902;DHT22;71369;50.796;3.290;2023-10-09T16:21:23;23.30;59.60
81902;DHT22;71369;50.796;3.290;2023-10-09T16:23:52;23.20;59.80
81902;DHT22;71369;50.796;3.290;2023-10-09T16:26:24;22.90;61.20
81902;DHT22;71369;50.796;3.290;2023-10-09T16:28:51;22.60;62.10
81902;DHT22;71369;50.796;3.290;2023-10-09T16:31:20;22.60;61.90
81902;DHT22;71369;50.796;3.290;2023-10-09T16:33:46;22.40;62.60
81902;DHT22;71369;50.796;3.290;2023-10-09T16:36:16;22.20;62.60
81902;DHT22;71369;50.796;3.290;2023-10-09T16:38:42;22.10;63.60
81902;DHT22;71369;50.796;3.290;2023-10-09T16:41:10;22.00;64.00
81902;DHT22;71369;50.796;3.290;2023-10-09T16:43:39;21.90;64.70
81902;DHT22;71369;50.796;3.290;2023-10-09T16:46:08;21.80;65.40
81902;DHT22;71369;50.796;3.290;2023-10-09T16:48:39;21.60;66.50
81902;DHT22;71369;50.796;3.290;2023-10-09T16:51:09;21.60;67.60
81902;DHT22;71369;50.796;3.290;2023-10-09T16:53:54;21.40;68.80
81902;DHT22;71369;50.796;3.290;2023-10-09T16:56:22;21.20;69.70
81902;DHT22;71369;50.796;3.290;2023-10-09T16:58:50;21.00;70.40
81902;DHT22;71369;50.796;3.290;2023-10-09T17:01:21;20.90;71.10
81902;DHT22;71369;50.796;3.290;2023-10-09T17:03:48;20.80;71.60
81902;DHT22;71369;50.796;3.290;2023-10-09T17:06:21;20.60;72.20
81902;DHT22;71369;50.796;3.290;2023-10-09T17:08:47;20.50;72.70
81902;DHT22;71369;50.796;3.290;2023-10-09T17:11:17;20.30;73.40
81902;DHT22;71369;50.796;3.290;2023-10-09T17:13:46;20.20;73.90
81902;DHT22;71369;50.796;3.290;2023-10-09T17:16:21;20.00;74.40
81902;DHT22;71369;50.796;3.290;2023-10-09T17:18:50;19.90;75.40
81902;DHT22;71369;50.796;3.290;2023-10-09T17:21:17;19.80;75.70
81902;DHT22;71369;50.796;3.290;2023-10-09T17:23:45;19.70;76.10
81902;DHT22;71369;50.796;3.290;2023-10-09T17:26:13;19.60;76.60
81902;DHT22;71369;50.796;3.290;2023-10-09T17:28:41;19.40;77.50
81902;DHT22;71369;50.796;3.290;2023-10-09T17:31:07;19.30;78.90
81902;DHT22;71369;50.796;3.290;2023-10-09T17:33:33;19.10;79.50
81902;DHT22;71369;50.796;3.290;2023-10-09T17:36:06;19.00;78.90
81902;DHT22;71369;50.796;3.290;2023-10-09T17:38:32;18.90;79.10
81902;DHT22;71369;50.796;3.290;2023-10-09T17:40:59;18.80;80.40
81902;DHT22;71369;50.796;3.290;2023-10-09T17:43:27;18.70;81.50
81902;DHT22;71369;50.796;3.290;2023-10-09T17:45:54;18.60;81.30
81902;DHT22;71369;50.796;3.290;2023-10-09T17:48:23;18.50;81.10
81902;DHT22;71369;50.796;3.290;2023-10-09T17:50:50;18.50;80.80
81902;DHT22;71369;50.796;3.290;2023-10-09T17:53:19;18.30;80.70
81902;DHT22;71369;50.796;3.290;2023-10-09T17:55:45;18.20;81.10
81902;DHT22;71369;50.796;3.290;2023-10-09T17:58:13;18.00;81.10
81902;DHT22;71369;50.796;3.290;2023-10-09T18:00:42;17.90;80.90
81902;DHT22;71369;50.796;3.290;2023-10-09T18:03:12;17.90;80.90
81902;DHT22;71369;50.796;3.290;2023-10-09T18:05:49;17.90;81.10
81902;DHT22;71369;50.796;3.290;2023-10-09T18:08:15;17.70;81.50
81902;DHT22;71369;50.796;3.290;2023-10-09T18:10:42;17.70;81.60
81902;DHT22;71369;50.796;3.290;2023-10-09T18:13:10;17.60;82.90
81902;DHT22;71369;50.796;3.290;2023-10-09T18:15:38;17.60;82.90
81902;DHT22;71369;50.796;3.290;2023-10-09T18:18:08;17.40;84.10
81902;DHT22;71369;50.796;3.290;2023-10-09T18:20:44;17.40;83.80
81902;DHT22;71369;50.796;3.290;2023-10-09T18:23:10;17.30;83.90
81902;DHT22;71369;50.796;3.290;2023-10-09T18:25:36;17.30;83.50
81902;DHT22;71369;50.796;3.290;2023-10-09T18:28:08;17.20;84.10
81902;DHT22;71369;50.796;3.290;2023-10-09T19:38:55;15.60;87.90
81902;DHT22;71369;50.796;3.290;2023-10-09T19:41:23;15.60;88.50
81902;DHT22;71369;50.796;3.290;2023-10-09T19:43:50;15.50;88.40
81902;DHT22;71369;50.796;3.290;2023-10-09T19:46:16;15.40;88.30
81902;DHT22;71369;50.796;3.290;2023-10-09T19:48:42;15.30;87.80
81902;DHT22;71369;50.796;3.290;2023-10-09T19:54:22;15.30;88.20
81902;DHT22;71369;50.796;3.290;2023-10-09T19:56:48;15.20;88.30
81902;DHT22;71369;50.796;3.290;2023-10-09T19:59:14;15.20;88.70
81902;DHT22;71369;50.796;3.290;2023-10-09T20:01:41;15.20;88.60
81902;DHT22;71369;50.796;3.290;2023-10-09T20:04:07;15.10;89.40
81902;DHT22;71369;50.796;3.290;2023-10-09T20:06:33;15.10;90.00
81902;DHT22;71369;50.796;3.290;2023-10-09T20:09:04;15.10;90.00
81902;DHT22;71369;50.796;3.290;2023-10-09T20:11:37;15.10;89.90
81902;DHT22;71369;50.796;3.290;2023-10-09T20:14:04;15.00;89.70
81902;DHT22;71369;50.796;3.290;2023-10-09T20:16:30;14.90;89.30
81902;DHT22;71369;50.796;3.290;2023-10-09T20:19:03;14.90;89.20
81902;DHT22;71369;50.796;3.290;2023-10-09T20:21:34;14.90;89.20
81902;DHT22;71369;50.796;3.290;2023-10-09T20:24:02;14.80;88.80
81902;DHT22;71369;50.796;3.290;2023-10-09T20:26:30;14.80;89.30
81902;DHT22;71369;50.796;3.290;2023-10-09T20:28:56;14.80;89.20
81902;DHT22;71369;50.796;3.290;2023-10-09T20:31:22;14.80;89.30
81902;DHT22;71369;50.796;3.290;2023-10-09T20:33:49;14.70;89.30
81902;DHT22;71369;50.796;3.290;2023-10-09T20:36:17;14.70;89.40
81902;DHT22;71369;50.796;3.290;2023-10-09T20:38:50;14.70;89.40
81902;DHT22;71369;50.796;3.290;2023-10-09T20:41:16;14.70;89.20
81902;DHT22;71369;50.796;3.290;2023-10-09T20:43:42;14.70;89.60
81902;DHT22;71369;50.796;3.290;2023-10-09T20:46:09;14.60;90.00
81902;DHT22;71369;50.796;3.290;2023-10-09T20:48:37;14.50;90.10
81902;DHT22;71369;50.796;3.290;2023-10-09T20:51:06;14.50;90.20
81902;DHT22;71369;50.796;3.290;2023-10-09T20:53:33;14.50;90.20
81902;DHT22;71369;50.796;3.290;2023-10-09T20:55:59;14.50;89.80
81902;DHT22;71369;50.796;3.290;2023-10-09T20:58:30;14.40;89.80
81902;DHT22;71369;50.796;3.290;2023-10-09T21:00:57;14.30;90.20
81902;DHT22;71369;50.796;3.290;2023-10-09T21:03:25;14.30;90.50
81902;DHT22;71369;50.796;3.290;2023-10-09T21:05:51;14.30;90.50
81902;DHT22;71369;50.796;3.290;2023-10-09T21:08:21;14.20;90.20
81902;DHT22;71369;50.796;3.290;2023-10-09T21:10:49;14.10;89.70
81902;DHT22;71369;50.796;3.290;2023-10-09T21:13:15;14.10;89.70
81902;DHT22;71369;50.796;3.290;2023-10-09T21:15:41;14.00;90.00
81902;DHT22;71369;50.796;3.290;2023-10-09T21:18:11;14.00;90.10
81902;DHT22;71369;50.796;3.290;2023-10-09T21:20:36;13.90;90.20
81902;DHT22;71369;50.796;3.290;2023-10-09T21:23:03;14.00;90.10
81902;DHT22;71369;50.796;3.290;2023-10-09T21:25:31;13.90;90.20
81902;DHT22;71369;50.796;3.290;2023-10-09T21:27:57;13.90;90.00
81902;DHT22;71369;50.796;3.290;2023-10-09T21:30:24;13.90;89.80
81902;DHT22;71369;50.796;3.290;2023-10-09T21:32:50;13.80;89.80
81902;DHT22;71369;50.796;3.290;2023-10-09T21:35:20;13.80;89.90
81902;DHT22;71369;50.796;3.290;2023-10-09T21:37:52;13.80;90.00
81902;DHT22;71369;50.796;3.290;2023-10-09T21:40:21;13.70;89.50
81902;DHT22;71369;50.796;3.290;2023-10-09T21:42:57;13.70;89.80
81902;DHT22;71369;50.796;3.290;2023-10-09T21:45:25;13.60;89.90
81902;DHT22;71369;50.796;3.290;2023-10-09T21:47:54;13.60;90.10
81902;DHT22;71369;50.796;3.290;2023-10-09T21:50:24;13.60;90.10
81902;DHT22;71369;50.796;3.290;2023-10-09T21:52:54;13.50;90.20
81902;DHT22;71369;50.796;3.290;2023-10-09T21:55:21;13.50;90.30
81902;DHT22;71369;50.796;3.290;2023-10-09T21:57:48;13.60;90.60
81902;DHT22;71369;50.796;3.290;2023-10-09T22:00:14;13.50;90.70
81902;DHT22;71369;50.796;3.290;2023-10-09T22:02:50;13.60;90.40
81902;DHT22;71369;50.796;3.290;2023-10-09T22:05:16;13.50;90.40
81902;DHT22;71369;50.796;3.290;2023-10-09T22:07:46;13.50;90.20
81902;DHT22;71369;50.796;3.290;2023-10-09T22:10:13;13.40;90.10
81902;DHT22;71369;50.796;3.290;2023-10-09T22:12:45;13.40;90.20
81902;DHT22;71369;50.796;3.290;2023-10-09T22:15:16;13.40;90.50
81902;DHT22;71369;50.796;3.290;2023-10-09T22:17:44;13.30;91.00
81902;DHT22;71369;50.796;3.290;2023-10-09T22:20:12;13.40;91.20
81902;DHT22;71369;50.796;3.290;2023-10-09T22:22:49;13.30;91.10
81902;DHT22;71369;50.796;3.290;2023-10-09T22:25:22;13.30;90.70
81902;DHT22;71369;50.796;3.290;2023-10-09T22:27:52;13.30;90.60
81902;DHT22;71369;50.796;3.290;2023-10-09T22:30:35;13.20;90.50
81902;DHT22;71369;50.796;3.290;2023-10-09T22:33:04;13.20;90.50
81902;DHT22;71369;50.796;3.290;2023-10-09T22:35:34;13.10;90.40
81902;DHT22;71369;50.796;3.290;2023-10-09T22:38:11;13.10;90.70
81902;DHT22;71369;50.796;3.290;2023-10-09T22:40:41;13.00;91.20
81902;DHT22;71369;50.796;3.290;2023-10-09T22:43:11;13.00;91.60
81902;DHT22;71369;50.796;3.290;2023-10-09T22:45:40;13.00;91.40
81902;DHT22;71369;50.796;3.290;2023-10-09T22:48:14;13.10;91.00
81902;DHT22;71369;50.796;3.290;2023-10-09T22:50:45;13.10;90.80
81902;DHT22;71369;50.796;3.290;2023-10-09T22:53:12;13.10;90.90
81902;DHT22;71369;50.796;3.290;2023-10-09T22:55:49;13.00;90.90
81902;DHT22;71369;50.796;3.290;2023-10-09T22:58:17;13.00;90.90
81902;DHT22;71369;50.796;3.290;2023-10-09T23:00:54;13.00;90.80
81902;DHT22;71369;50.796;3.290;2023-10-09T23:03:25;13.00;90.70
81902;DHT22;71369;50.796;3.290;2023-10-09T23:05:56;13.00;90.80
81902;DHT22;71369;50.796;3.290;2023-10-09T23:08:24;12.90;90.80
81902;DHT22;71369;50.796;3.290;2023-10-09T23:10:52;12.90;91.10
81902;DHT22;71369;50.796;3.290;2023-10-09T23:13:19;12.90;91.30
81902;DHT22;71369;50.796;3.290;2023-10-09T23:15:48;12.90;91.40
81902;DHT22;71369;50.796;3.290;2023-10-09T23:18:33;12.90;91.40
81902;DHT22;71369;50.796;3.290;2023-10-09T23:21:09;12.90;91.40
81902;DHT22;71369;50.796;3.290;2023-10-09T23:23:49;12.90;91.20
81902;DHT22;71369;50.796;3.290;2023-10-09T23:26:17;12.80;91.20
81902;DHT22;71369;50.796;3.290;2023-10-09T23:28:54;12.80;91.00
81902;DHT22;71369;50.796;3.290;2023-10-09T23:31:20;12.80;90.70
81902;DHT22;71369;50.796;3.290;2023-10-09T23:34:01;12.70;90.70